Time;durP1;ratioP1;P1;durP2;ratioP2;P2;SDS_P1;SDS_P2;PMS_P1;PMS_P2;Temp;Humidity;BMP_temperature;BMP_pressure;BME280_temperature;BME280_humidity;BME280_pressure;Samples;Min_cycle;Max_cycle;Signal;HPM_P1;HPM_P2
2023/09/11 00:00:48;;;;;;;11.55;9.10;;;15.10;99.90;;;;;;5023252;28;20040;-58
2023/09/11 00:03:14;;;;;;;10.32;8.60;;;15.10;99.90;;;;;;5021194;28;20512;-58
2023/09/11 00:05:39;;;;;;;11.75;8.77;;;15.00;99.90;;;;;;5030012;28;20091;-58
2023/09/11 00:08:05;;;;;;;9.98;8.45;;;15.00;99.90;;;;;;5021158;28;20040;-58
2023/09/11 00:10:32;;;;;;;11.48;9.23;;;15.00;99.90;;;;;;5021306;28;20045;-58
2023/09/11 00:12:58;;;;;;;12.55;8.48;;;14.90;99.90;;;;;;5012629;28;20536;-62
2023/09/11 00:15:24;;;;;;;10.55;8.75;;;14.90;99.90;;;;;;5022569;28;20029;-62
2023/09/11 00:17:50;;;;;;;10.18;8.30;;;14.90;99.90;;;;;;5020871;28;20021;-62
2023/09/11 00:20:15;;;;;;;10.98;8.23;;;14.90;99.90;;;;;;5019421;28;20393;-62
2023/09/11 00:22:41;;;;;;;11.05;8.57;;;14.90;99.90;;;;;;5024933;28;20037;-63
2023/09/11 00:25:07;;;;;;;11.18;8.60;;;14.80;99.90;;;;;;5020536;28;20489;-62
2023/09/11 00:27:32;;;;;;;13.32;8.85;;;14.80;99.90;;;;;;5019990;28;20038;-62
2023/09/11 00:29:58;;;;;;;10.57;8.40;;;14.80;99.90;;;;;;5025847;28;20033;-63
2023/09/11 00:32:23;;;;;;;11.48;8.38;;;14.80;99.90;;;;;;5016955;28;20059;-62
2023/09/11 00:34:49;;;;;;;11.10;8.95;;;14.80;99.90;;;;;;5017370;28;20436;-62
2023/09/11 00:37:14;;;;;;;9.73;7.47;;;14.80;99.90;;;;;;5023080;28;20033;-62
2023/09/11 00:39:40;;;;;;;10.77;8.88;;;14.70;99.90;;;;;;5021665;28;20445;-62
2023/09/11 00:42:05;;;;;;;11.07;8.48;;;14.70;99.90;;;;;;5020812;28;20033;-63
2023/09/11 00:44:31;;;;;;;8.50;7.40;;;14.70;99.90;;;;;;5021258;28;20179;-62
2023/09/11 00:46:57;;;;;;;10.07;8.50;;;14.60;99.90;;;;;;5022274;28;21055;-62
2023/09/11 00:49:24;;;;;;;9.27;7.43;;;14.60;99.90;;;;;;5021694;28;20033;-62
2023/09/11 00:51:50;;;;;;;8.90;7.53;;;14.60;99.90;;;;;;5021337;28;20025;-62
2023/09/11 00:54:20;;;;;;;8.82;6.72;;;14.60;99.90;;;;;;5020609;28;20478;-63
2023/09/11 00:56:47;;;;;;;9.88;7.50;;;14.50;99.90;;;;;;5020139;28;20112;-62
2023/09/11 00:59:14;;;;;;;10.25;8.43;;;14.50;99.90;;;;;;5020836;28;20033;-62
2023/09/11 01:01:41;;;;;;;10.68;7.68;;;14.50;99.90;;;;;;5029866;28;20634;-62
2023/09/11 01:04:07;;;;;;;10.35;8.15;;;14.50;99.90;;;;;;5020040;28;20488;-62
2023/09/11 01:06:33;;;;;;;11.88;8.52;;;14.50;99.90;;;;;;5020003;28;20036;-62
2023/09/11 01:08:59;;;;;;;10.55;7.85;;;14.50;99.90;;;;;;5020071;28;20037;-62
2023/09/11 01:11:24;;;;;;;8.23;7.07;;;14.50;99.90;;;;;;5024095;28;20404;-62
2023/09/11 01:13:50;;;;;;;11.27;7.78;;;14.40;99.90;;;;;;5012488;28;20200;-62
2023/09/11 01:16:53;;;;;;;9.38;7.57;;;14.40;99.90;;;;;;5020083;28;20488;-65
2023/09/11 01:19:40;;;;;;;10.02;7.45;;;14.40;99.90;;;;;;5025067;28;20113;-57
2023/09/11 01:22:26;;;;;;;11.70;9.15;;;14.30;99.90;;;;;;5028983;28;20017;-69
2023/09/11 01:25:14;;;;;;;10.23;7.75;;;14.30;99.90;;;;;;5029255;28;20350;-68
2023/09/11 01:28:14;;;;;;;14.10;8.75;;;14.30;99.90;;;;;;5029015;28;20025;-68
2023/09/11 01:30:40;;;;;;;12.13;8.40;;;14.30;99.90;;;;;;5028851;28;20026;-68
2023/09/11 01:33:06;;;;;;;11.60;8.85;;;14.20;99.90;;;;;;5028661;28;20053;-68
2023/09/11 01:35:31;;;;;;;12.70;8.82;;;14.20;99.90;;;;;;5028260;28;20022;-68
2023/09/11 01:37:58;;;;;;;11.40;8.40;;;14.20;99.90;;;;;;5025897;28;20101;-68
2023/09/11 01:40:26;;;;;;;10.68;8.73;;;14.20;99.90;;;;;;5022122;28;20551;-63
2023/09/11 01:42:55;;;;;;;14.27;8.93;;;14.10;99.90;;;;;;5011242;28;20085;-62
2023/09/11 01:45:21;;;;;;;11.43;8.57;;;14.10;99.90;;;;;;5024532;28;20045;-63
2023/09/11 01:47:50;;;;;;;10.90;9.07;;;14.10;99.90;;;;;;5021449;28;20036;-62
2023/09/11 01:50:17;;;;;;;10.30;8.52;;;14.10;99.90;;;;;;5019193;28;20108;-62
2023/09/11 01:52:49;;;;;;;10.35;8.60;;;14.10;99.90;;;;;;5023509;28;20389;-57
2023/09/11 01:55:15;;;;;;;11.18;8.63;;;14.00;99.90;;;;;;5019524;28;20474;-56
2023/09/11 01:57:40;;;;;;;10.20;8.43;;;14.00;99.90;;;;;;5019572;28;20045;-55
2023/09/11 02:00:08;;;;;;;12.80;9.60;;;14.00;99.90;;;;;;5019424;28;20254;-57
2023/09/11 02:02:33;;;;;;;11.20;8.55;;;14.00;99.90;;;;;;5019408;28;20082;-58
2023/09/11 02:05:00;;;;;;;12.20;8.38;;;14.00;99.90;;;;;;5029853;28;20021;-58
2023/09/11 02:07:26;;;;;;;12.77;8.55;;;14.00;99.90;;;;;;5017361;28;20426;-58
2023/09/11 02:09:51;;;;;;;12.52;9.00;;;13.90;99.90;;;;;;5020710;28;20069;-58
2023/09/11 02:12:17;;;;;;;13.20;8.98;;;13.90;99.90;;;;;;5024665;28;20069;-56
2023/09/11 02:14:42;;;;;;;14.73;8.88;;;13.90;99.90;;;;;;5017135;28;20057;-57
2023/09/11 02:17:08;;;;;;;12.00;9.23;;;13.90;99.90;;;;;;5022447;28;20025;-58
2023/09/11 02:19:33;;;;;;;12.70;9.65;;;13.90;99.90;;;;;;5017261;28;20105;-56
2023/09/11 02:22:00;;;;;;;10.05;8.68;;;13.90;99.90;;;;;;5024670;28;20387;-58
2023/09/11 02:24:26;;;;;;;13.73;9.00;;;13.80;99.90;;;;;;5013117;28;20029;-58
2023/09/11 02:26:53;;;;;;;11.95;9.32;;;13.80;99.90;;;;;;5019212;28;20029;-57
2023/09/11 02:29:18;;;;;;;11.95;9.15;;;13.80;99.90;;;;;;5019434;28;20044;-57
2023/09/11 02:31:44;;;;;;;9.65;7.80;;;13.80;99.90;;;;;;5015813;28;20049;-57
2023/09/11 02:34:09;;;;;;;10.35;8.48;;;13.80;99.90;;;;;;5022136;28;20559;-58
2023/09/11 02:36:35;;;;;;;16.33;9.98;;;13.70;99.90;;;;;;5015835;28;20164;-58
2023/09/11 02:39:00;;;;;;;15.10;9.82;;;13.80;99.90;;;;;;5018447;28;20411;-57
2023/09/11 02:41:25;;;;;;;15.13;9.77;;;13.70;99.90;;;;;;5015894;28;20034;-58
2023/09/11 02:43:51;;;;;;;12.07;9.05;;;13.70;99.90;;;;;;5023822;28;20493;-58
2023/09/11 02:46:16;;;;;;;12.65;9.40;;;13.70;99.90;;;;;;5016854;28;20065;-58
2023/09/11 02:48:46;;;;;;;12.30;9.25;;;13.70;99.90;;;;;;5022162;28;20032;-58
2023/09/11 02:51:12;;;;;;;15.18;10.57;;;13.60;99.90;;;;;;5020958;28;20509;-58
2023/09/11 02:53:38;;;;;;;11.57;9.52;;;13.60;99.90;;;;;;5021764;28;20036;-58
2023/09/11 02:56:04;;;;;;;15.88;10.35;;;13.60;99.90;;;;;;5028154;28;20033;-58
2023/09/11 02:58:29;;;;;;;14.18;9.63;;;13.60;99.90;;;;;;5018261;28;20060;-57
2023/09/11 03:01:00;;;;;;;11.05;9.65;;;13.60;99.90;;;;;;5031058;28;20119;-57
2023/09/11 03:03:25;;;;;;;16.40;9.70;;;13.50;99.90;;;;;;5026032;28;20572;-57
2023/09/11 03:05:56;;;;;;;13.02;9.75;;;13.50;99.90;;;;;;5025103;28;20349;-58
2023/09/11 03:08:22;;;;;;;13.85;10.18;;;13.50;99.90;;;;;;5022293;28;20017;-58
2023/09/11 03:10:47;;;;;;;12.45;9.85;;;13.50;99.90;;;;;;5022109;28;20068;-58
2023/09/11 03:13:13;;;;;;;14.25;9.63;;;13.50;99.90;;;;;;5022217;28;20057;-59
2023/09/11 03:15:38;;;;;;;12.23;9.88;;;13.50;99.90;;;;;;5023921;28;20065;-58
2023/09/11 03:18:04;;;;;;;12.50;10.05;;;13.50;99.90;;;;;;5025943;28;20059;-57
2023/09/11 03:20:29;;;;;;;15.32;11.32;;;13.40;99.90;;;;;;5021876;28;20421;-58
2023/09/11 03:22:55;;;;;;;13.32;10.30;;;13.40;99.90;;;;;;5021964;28;20033;-57
2023/09/11 03:25:20;;;;;;;11.30;8.77;;;13.40;99.90;;;;;;5021924;28;20030;-57
2023/09/11 03:27:46;;;;;;;13.40;9.95;;;13.40;99.90;;;;;;5021798;28;20060;-58
2023/09/11 03:30:11;;;;;;;13.35;10.10;;;13.30;99.90;;;;;;5022089;28;20608;-57
2023/09/11 03:32:37;;;;;;;13.70;9.68;;;13.40;99.90;;;;;;5023463;28;20040;-58
2023/09/11 03:35:03;;;;;;;13.70;9.52;;;13.30;99.90;;;;;;5019562;28;20030;-58
2023/09/11 03:37:28;;;;;;;14.75;10.35;;;13.30;99.90;;;;;;5022083;28;20045;-58
2023/09/11 03:39:55;;;;;;;15.30;10.07;;;13.30;99.90;;;;;;5023316;28;20492;-58
2023/09/11 03:42:21;;;;;;;14.82;9.82;;;13.30;99.90;;;;;;5022771;28;20035;-57
2023/09/11 03:44:46;;;;;;;14.07;10.50;;;13.30;99.90;;;;;;5021627;28;20026;-59
2023/09/11 03:47:12;;;;;;;13.15;10.57;;;13.20;99.90;;;;;;5027301;28;20025;-58
2023/09/11 03:49:38;;;;;;;12.65;9.98;;;13.20;99.90;;;;;;5021745;28;20033;-58
2023/09/11 03:52:03;;;;;;;12.48;9.57;;;13.20;99.90;;;;;;5021597;28;20083;-57
2023/09/11 03:54:29;;;;;;;12.82;9.95;;;13.20;99.90;;;;;;5018712;28;20099;-58
2023/09/11 03:56:54;;;;;;;11.35;9.38;;;13.20;99.90;;;;;;5024634;28;20032;-58
2023/09/11 03:59:20;;;;;;;11.48;9.00;;;13.20;99.90;;;;;;5025958;28;20090;-57
2023/09/11 04:01:45;;;;;;;12.45;10.05;;;13.20;99.90;;;;;;5016757;28;20505;-58
2023/09/11 04:04:10;;;;;;;11.70;8.60;;;13.20;99.90;;;;;;5022723;28;20443;-56
2023/09/11 04:06:36;;;;;;;11.70;10.00;;;13.10;99.90;;;;;;5020908;28;20021;-56
2023/09/11 04:09:02;;;;;;;11.80;9.25;;;13.10;99.90;;;;;;5019096;28;20010;-58
2023/09/11 04:11:28;;;;;;;12.88;9.27;;;13.10;99.90;;;;;;5022779;28;20021;-58
2023/09/11 04:13:54;;;;;;;11.80;8.85;;;13.10;99.90;;;;;;5022786;28;20101;-58
2023/09/11 04:16:21;;;;;;;9.93;8.70;;;13.10;99.90;;;;;;5021064;28;20024;-58
2023/09/11 04:18:46;;;;;;;11.90;9.13;;;13.10;99.90;;;;;;5020915;28;20401;-58
2023/09/11 04:21:12;;;;;;;13.90;9.02;;;13.10;99.90;;;;;;5020910;28;20026;-58
2023/09/11 04:23:37;;;;;;;10.23;8.38;;;13.10;99.90;;;;;;5022642;28;20144;-58
2023/09/11 04:26:03;;;;;;;9.27;8.25;;;13.10;99.90;;;;;;5023474;28;20032;-58
2023/09/11 04:28:29;;;;;;;14.63;9.52;;;13.10;99.90;;;;;;5020902;28;20552;-58
2023/09/11 04:30:54;;;;;;;13.23;8.48;;;13.10;99.90;;;;;;5026224;28;20567;-59
2023/09/11 04:33:20;;;;;;;12.85;9.77;;;13.10;99.90;;;;;;5025812;28;20905;-58
2023/09/11 04:35:45;;;;;;;11.80;9.05;;;13.10;99.90;;;;;;5020835;28;20390;-58
2023/09/11 04:38:12;;;;;;;11.70;9.63;;;13.10;99.90;;;;;;5023129;28;20413;-58
2023/09/11 04:40:38;;;;;;;12.15;8.48;;;13.10;99.90;;;;;;5019043;28;20037;-60
2023/09/11 04:43:04;;;;;;;11.00;9.27;;;13.10;99.90;;;;;;5016751;28;20033;-58
2023/09/11 04:45:30;;;;;;;11.40;8.18;;;13.10;99.90;;;;;;5025329;28;20029;-58
2023/09/11 04:47:55;;;;;;;12.13;9.43;;;13.10;99.90;;;;;;5018381;28;20124;-56
2023/09/11 04:50:21;;;;;;;12.38;9.65;;;13.20;99.90;;;;;;5019917;28;20400;-58
2023/09/11 04:52:46;;;;;;;14.07;9.35;;;13.20;99.90;;;;;;5021561;28;20033;-58
2023/09/11 04:55:12;;;;;;;12.90;9.70;;;13.20;99.90;;;;;;5020339;28;20620;-58
2023/09/11 04:57:39;;;;;;;10.93;9.02;;;13.20;99.90;;;;;;5020285;28;20425;-58
2023/09/11 05:00:09;;;;;;;13.77;9.45;;;13.30;99.90;;;;;;5021236;28;20047;-57
2023/09/11 05:02:35;;;;;;;13.02;9.57;;;13.30;99.90;;;;;;5021778;28;20025;-58
2023/09/11 05:05:00;;;;;;;11.52;8.80;;;13.40;99.90;;;;;;5010242;28;20048;-58
2023/09/11 05:07:26;;;;;;;10.95;9.05;;;13.40;99.90;;;;;;5020324;28;20516;-58
2023/09/11 05:09:51;;;;;;;10.40;8.65;;;13.50;99.90;;;;;;5011159;28;20079;-58
2023/09/11 05:12:17;;;;;;;12.80;9.52;;;13.50;99.90;;;;;;5011130;28;20024;-58
2023/09/11 05:14:42;;;;;;;12.57;8.98;;;13.50;99.90;;;;;;5018578;28;20032;-59
2023/09/11 05:17:07;;;;;;;12.73;9.52;;;13.60;99.90;;;;;;5021745;28;20122;-58
2023/09/11 05:19:33;;;;;;;11.23;9.27;;;13.70;99.90;;;;;;5019389;28;20029;-58
2023/09/11 05:21:58;;;;;;;9.55;8.55;;;13.80;99.90;;;;;;5019289;28;20033;-57
2023/09/11 05:24:24;;;;;;;12.13;9.80;;;13.90;99.90;;;;;;5019674;28;20060;-56
2023/09/11 05:26:49;;;;;;;11.55;9.25;;;14.30;99.90;;;;;;5018686;28;20115;-58
2023/09/11 05:29:15;;;;;;;9.57;8.43;;;15.10;99.90;;;;;;5021656;28;20025;-58
2023/09/11 05:31:40;;;;;;;8.38;7.38;;;15.90;99.90;;;;;;5019466;28;20121;-58
2023/09/11 05:34:06;;;;;;;10.48;8.40;;;16.80;99.90;;;;;;5021921;28;20036;-58
2023/09/11 05:36:31;;;;;;;10.02;7.75;;;17.70;99.90;;;;;;5016933;28;20030;-58
2023/09/11 05:38:57;;;;;;;11.38;8.07;;;18.60;99.90;;;;;;5020555;28;20038;-59
2023/09/11 05:41:24;;;;;;;9.75;7.32;;;19.40;99.90;;;;;;5019123;28;20033;-59
2023/09/11 05:43:49;;;;;;;9.63;7.47;;;20.10;98.70;;;;;;5019408;28;20047;-59
2023/09/11 05:46:15;;;;;;;8.88;7.97;;;20.80;96.20;;;;;;5028572;28;20108;-59
2023/09/11 05:48:40;;;;;;;10.30;7.55;;;21.40;93.40;;;;;;5020263;28;20033;-59
2023/09/11 05:51:06;;;;;;;7.90;7.05;;;22.00;93.00;;;;;;5016080;28;20025;-68
2023/09/11 05:53:32;;;;;;;9.02;7.22;;;22.60;91.70;;;;;;5021940;28;20024;-68
2023/09/11 05:55:57;;;;;;;7.03;6.15;;;23.20;90.20;;;;;;5017989;28;20134;-67
2023/09/11 05:58:23;;;;;;;7.68;6.60;;;23.70;87.70;;;;;;5018405;28;20544;-65
2023/09/11 06:00:51;;;;;;;8.77;7.22;;;24.30;86.60;;;;;;5025120;28;20044;-66
2023/09/11 06:03:16;;;;;;;8.38;6.40;;;24.80;84.30;;;;;;5020843;28;20075;-66
2023/09/11 06:05:42;;;;;;;6.43;5.82;;;25.30;81.80;;;;;;5020027;28;20025;-65
2023/09/11 06:08:07;;;;;;;9.27;6.93;;;25.80;79.60;;;;;;5019419;28;20501;-66
2023/09/11 06:10:36;;;;;;;7.78;6.07;;;26.30;77.80;;;;;;5019225;28;20034;-66
2023/09/11 06:13:02;;;;;;;7.10;5.85;;;26.80;76.50;;;;;;5019288;28;20092;-66
2023/09/11 06:15:29;;;;;;;6.63;5.88;;;27.40;74.40;;;;;;5019367;28;20112;-68
2023/09/11 06:17:54;;;;;;;7.03;6.43;;;27.90;72.10;;;;;;5015513;28;20080;-66
2023/09/11 06:20:21;;;;;;;7.20;6.28;;;28.20;70.60;;;;;;5024602;28;20025;-66
2023/09/11 06:22:50;;;;;;;7.63;6.82;;;28.50;68.70;;;;;;5016245;28;20033;-66
2023/09/11 06:25:15;;;;;;;8.20;7.13;;;29.00;67.00;;;;;;5019569;28;20596;-66
2023/09/11 06:27:41;;;;;;;6.60;6.00;;;29.40;65.80;;;;;;5024968;28;20112;-66
2023/09/11 06:30:07;;;;;;;7.80;6.70;;;29.90;64.70;;;;;;5022576;28;20021;-66
2023/09/11 06:32:33;;;;;;;6.63;5.93;;;30.20;62.20;;;;;;5021336;28;20532;-66
2023/09/11 06:35:01;;;;;;;8.25;6.85;;;30.70;61.20;;;;;;5029441;28;20036;-65
2023/09/11 06:37:26;;;;;;;8.25;7.30;;;30.90;58.00;;;;;;5022658;28;20025;-65
2023/09/11 06:39:52;;;;;;;6.82;6.20;;;31.10;56.80;;;;;;5022834;28;20048;-66
2023/09/11 06:42:21;;;;;;;8.40;6.85;;;31.40;55.80;;;;;;5017129;28;20172;-66
2023/09/11 06:44:47;;;;;;;10.63;6.95;;;31.90;53.00;;;;;;5022653;28;20493;-66
2023/09/11 06:47:12;;;;;;;7.85;6.97;;;32.10;53.20;;;;;;5022454;28;20036;-66
2023/09/11 06:49:38;;;;;;;10.50;6.72;;;32.40;51.50;;;;;;5022444;28;20385;-65
2023/09/11 06:52:03;;;;;;;7.45;6.60;;;32.60;50.30;;;;;;5022552;28;20025;-67
2023/09/11 06:54:29;;;;;;;6.97;6.28;;;33.00;48.40;;;;;;5024357;28;20029;-67
2023/09/11 06:56:54;;;;;;;9.23;7.40;;;33.20;46.60;;;;;;5022039;28;20028;-66
2023/09/11 06:59:20;;;;;;;9.82;7.70;;;33.50;44.70;;;;;;5021742;28;20061;-66
2023/09/11 07:01:45;;;;;;;8.13;6.95;;;33.70;43.50;;;;;;5024832;28;20105;-66
2023/09/11 07:04:11;;;;;;;8.02;7.20;;;33.80;41.50;;;;;;5020252;28;20095;-66
2023/09/11 07:06:38;;;;;;;8.15;7.35;;;34.20;40.20;;;;;;5020145;28;20426;-65
2023/09/11 07:09:07;;;;;;;8.48;7.55;;;34.50;38.30;;;;;;5027926;28;20025;-66
2023/09/11 07:11:33;;;;;;;8.32;7.07;;;34.70;36.90;;;;;;5020265;28;20399;-66
2023/09/11 07:13:59;;;;;;;8.70;6.93;;;34.90;35.40;;;;;;5022859;28;20030;-66
2023/09/11 07:16:25;;;;;;;8.63;6.47;;;35.20;33.90;;;;;;5024083;28;20115;-66
2023/09/11 07:18:51;;;;;;;8.00;6.95;;;35.40;32.70;;;;;;5023719;28;20132;-65
2023/09/11 07:21:16;;;;;;;6.80;6.20;;;35.40;31.30;;;;;;5021868;28;20083;-62
2023/09/11 07:23:42;;;;;;;9.55;6.45;;;35.30;30.50;;;;;;5021934;28;20030;-62
2023/09/11 07:26:07;;;;;;;7.57;6.05;;;35.10;30.50;;;;;;5030445;28;20093;-60
2023/09/11 07:28:55;;;;;;;8.15;6.55;;;34.80;29.80;;;;;;5021659;28;20029;-60
2023/09/11 07:31:21;;;;;;;6.95;6.25;;;34.90;24.00;;;;;;5023643;28;20586;-62
2023/09/11 07:33:47;;;;;;;7.47;5.60;;;34.90;29.10;;;;;;5021993;28;20459;-60
2023/09/11 07:36:13;;;;;;;8.00;5.32;;;34.80;28.80;;;;;;5021009;28;20049;-60
2023/09/11 07:38:44;;;;;;;7.50;6.20;;;34.80;28.30;;;;;;5023289;28;20060;-61
2023/09/11 07:41:19;;;;;;;7.38;5.88;;;34.70;28.00;;;;;;5019821;28;20022;-60
2023/09/11 07:43:51;;;;;;;6.70;5.30;;;34.70;27.70;;;;;;5021346;28;20029;-60
2023/09/11 07:46:21;;;;;;;8.23;5.68;;;34.50;27.40;;;;;;5025280;28;20106;-61
2023/09/11 07:48:47;;;;;;;6.32;5.25;;;34.50;27.10;;;;;;5025452;28;20022;-61
2023/09/11 07:51:12;;;;;;;7.30;5.20;;;34.60;27.30;;;;;;5019901;28;20032;-60
2023/09/11 07:53:38;;;;;;;6.68;5.22;;;34.50;26.70;;;;;;5021948;28;20020;-61
2023/09/11 07:56:06;;;;;;;5.28;4.78;;;34.50;26.60;;;;;;5022216;28;20064;-61
2023/09/11 07:58:31;;;;;;;7.43;5.50;;;34.50;26.50;;;;;;5021023;28;20464;-61
2023/09/11 08:00:56;;;;;;;6.18;5.57;;;34.50;26.20;;;;;;5021215;28;20108;-62
2023/09/11 08:03:22;;;;;;;5.55;4.75;;;34.60;25.40;;;;;;5021052;28;20079;-62
2023/09/11 08:05:47;;;;;;;5.68;5.18;;;34.50;25.30;;;;;;5020788;28;20053;-61
2023/09/11 08:08:13;;;;;;;6.93;5.07;;;34.50;25.40;;;;;;5026918;28;20125;-61
2023/09/11 08:10:38;;;;;;;6.85;5.35;;;34.30;25.20;;;;;;5020785;28;20513;-61
2023/09/11 08:13:04;;;;;;;5.45;4.95;;;34.30;25.40;;;;;;5030793;28;20155;-61
2023/09/11 08:15:30;;;;;;;4.88;4.47;;;34.20;25.40;;;;;;5016118;28;20030;-61
2023/09/11 08:17:55;;;;;;;5.25;4.72;;;34.10;25.40;;;;;;5024116;28;20037;-60
2023/09/11 08:20:21;;;;;;;5.40;4.72;;;34.10;25.50;;;;;;5017428;28;20043;-57
2023/09/11 08:22:46;;;;;;;6.07;4.93;;;34.10;25.40;;;;;;5023058;28;20030;-61
2023/09/11 08:25:12;;;;;;;5.70;4.63;;;34.10;25.50;;;;;;5022991;28;20163;-61
2023/09/11 08:27:38;;;;;;;4.80;4.30;;;34.20;25.10;;;;;;5017839;28;20029;-61
2023/09/11 08:30:05;;;;;;;5.50;5.03;;;34.30;25.10;;;;;;5024612;28;20044;-61
2023/09/11 08:32:33;;;;;;;4.63;4.22;;;34.30;24.70;;;;;;5020249;28;20456;-61
2023/09/11 08:34:59;;;;;;;7.05;4.50;;;34.30;24.50;;;;;;5020488;28;20025;-61
2023/09/11 08:37:25;;;;;;;5.45;4.10;;;34.30;24.20;;;;;;5020298;28;20029;-61
2023/09/11 08:39:51;;;;;;;4.97;4.47;;;34.50;24.20;;;;;;5020547;28;20025;-61
2023/09/11 08:42:16;;;;;;;4.80;4.40;;;34.60;24.00;;;;;;5018175;28;20021;-61
2023/09/11 08:44:42;;;;;;;5.53;5.03;;;34.50;23.70;;;;;;5023126;28;20029;-61
2023/09/11 08:47:09;;;;;;;7.80;4.70;;;34.50;23.50;;;;;;5024466;28;20048;-61
2023/09/11 08:49:41;;;;;;;7.95;4.15;;;34.40;23.40;;;;;;5024240;28;20060;-61
2023/09/11 08:52:11;;;;;;;6.00;4.75;;;34.40;23.40;;;;;;5017240;28;20029;-61
2023/09/11 08:54:42;;;;;;;6.00;4.90;;;34.60;23.30;;;;;;5018308;28;20490;-61
2023/09/11 08:57:11;;;;;;;5.80;4.88;;;34.70;22.60;;;;;;5022454;28;20021;-60
2023/09/11 08:59:40;;;;;;;4.78;4.28;;;34.70;22.70;;;;;;5019874;28;20047;-61
2023/09/11 09:02:06;;;;;;;5.10;4.60;;;34.70;22.70;;;;;;5019805;28;20482;-61
2023/09/11 09:04:34;;;;;;;5.68;4.32;;;34.80;22.30;;;;;;5020036;28;20048;-60
2023/09/11 09:07:00;;;;;;;6.32;4.43;;;34.90;22.00;;;;;;5030496;28;20028;-61
2023/09/11 09:09:25;;;;;;;5.28;4.55;;;35.00;21.80;;;;;;5023856;28;20025;-61
2023/09/11 09:11:51;;;;;;;4.80;4.25;;;35.00;21.60;;;;;;5019707;28;20045;-61
2023/09/11 09:14:21;;;;;;;4.38;3.97;;;35.10;21.40;;;;;;5012917;28;20021;-62
2023/09/11 09:16:47;;;;;;;4.93;4.47;;;35.10;21.30;;;;;;5015580;28;20030;-62
2023/09/11 09:19:12;;;;;;;5.03;4.05;;;35.00;21.40;;;;;;5022320;28;20048;-62
2023/09/11 09:22:01;;;;;;;5.32;4.18;;;35.00;21.30;;;;;;5018446;28;20431;-62
2023/09/11 09:24:26;;;;;;;6.65;4.78;;;35.00;20.20;;;;;;5016352;28;20021;-63
2023/09/11 09:26:57;;;;;;;7.32;4.22;;;35.10;20.60;;;;;;5023582;28;20040;-63
2023/09/11 09:29:22;;;;;;;5.88;4.07;;;35.10;20.50;;;;;;5023661;28;20036;-63
2023/09/11 09:31:48;;;;;;;5.47;4.25;;;35.10;20.10;;;;;;5019384;28;20038;-62
2023/09/11 09:34:13;;;;;;;4.82;4.32;;;35.00;20.00;;;;;;5023885;28;20109;-62
2023/09/11 09:36:49;;;;;;;5.88;4.10;;;34.90;19.90;;;;;;5019434;28;20030;-63
2023/09/11 09:39:15;;;;;;;8.68;4.63;;;34.90;19.30;;;;;;5019532;28;20116;-62
2023/09/11 09:41:54;;;;;;;9.32;4.38;;;34.90;19.60;;;;;;5019495;28;20120;-62
2023/09/11 09:44:38;;;;;;;4.30;3.88;;;34.70;18.10;;;;;;5023400;28;20038;-62
2023/09/11 09:47:13;;;;;;;5.27;4.10;;;34.70;18.40;;;;;;5019487;28;20597;-62
2023/09/11 09:49:49;;;;;;;;;;;34.70;18.10;;;;;;5017939;28;20057;-62
2023/09/11 09:52:17;;;;;;;5.13;3.42;;;34.70;17.60;;;;;;5020560;28;20008;-62
2023/09/11 09:54:49;;;;;;;7.00;4.70;;;34.80;18.00;;;;;;5019381;28;20547;-63
2023/09/11 09:57:16;;;;;;;4.65;4.25;;;34.60;17.40;;;;;;5019140;28;20514;-62
2023/09/11 09:59:42;;;;;;;5.20;4.70;;;34.30;17.40;;;;;;5022357;28;20067;-62
2023/09/11 10:02:11;;;;;;;5.90;4.53;;;33.70;17.30;;;;;;5025176;28;20040;-62
2023/09/11 10:04:38;;;;;;;6.20;4.72;;;33.70;17.40;;;;;;5027226;28;20052;-62
2023/09/11 10:07:03;;;;;;;6.90;5.13;;;33.60;17.80;;;;;;5019000;28;20033;-62
2023/09/11 10:09:29;;;;;;;4.88;4.32;;;33.40;17.30;;;;;;5023213;28;20033;-62
2023/09/11 10:11:54;;;;;;;6.90;4.80;;;33.30;17.70;;;;;;5023027;28;20091;-63
2023/09/11 10:14:21;;;;;;;6.32;4.57;;;33.20;17.20;;;;;;5019771;28;20045;-62
2023/09/11 10:16:47;;;;;;;5.75;4.55;;;33.20;17.30;;;;;;5022935;28;20040;-62
2023/09/11 10:19:13;;;;;;;5.22;4.28;;;33.10;16.70;;;;;;5024669;28;20513;-62
2023/09/11 10:21:38;;;;;;;5.07;4.30;;;32.90;16.60;;;;;;5027737;28;20017;-62
2023/09/11 10:24:05;;;;;;;7.53;4.63;;;32.70;16.70;;;;;;5023526;28;20224;-62
2023/09/11 10:26:47;;;;;;;8.73;4.28;;;32.70;17.00;;;;;;5024882;28;20090;-62
2023/09/11 10:29:24;;;;;;;6.35;4.03;;;32.70;17.80;;;;;;5023084;28;20246;-62
2023/09/11 10:31:58;;;;;;;6.82;3.85;;;32.60;17.10;;;;;;5024263;28;20037;-62
2023/09/11 10:34:25;;;;;;;7.20;4.05;;;32.60;16.90;;;;;;5019684;28;20053;-62
2023/09/11 10:36:56;;;;;;;6.03;3.88;;;32.40;16.90;;;;;;5022923;28;20021;-62
2023/09/11 10:39:22;;;;;;;4.50;4.10;;;32.30;16.70;;;;;;5023423;28;20022;-62
2023/09/11 10:41:48;;;;;;;4.80;4.13;;;32.10;17.40;;;;;;5024964;28;20051;-62
2023/09/11 10:44:15;;;;;;;5.18;4.45;;;31.80;17.00;;;;;;5019620;28;20432;-62
2023/09/11 10:46:50;;;;;;;6.30;4.32;;;31.60;17.40;;;;;;5023401;28;20075;-62
2023/09/11 10:49:20;;;;;;;7.82;5.72;;;31.30;18.00;;;;;;5021906;28;20191;-62
2023/09/11 10:51:47;;;;;;;5.55;4.30;;;31.00;18.10;;;;;;5018965;28;20083;-62
2023/09/11 10:54:14;;;;;;;5.40;4.68;;;30.80;18.30;;;;;;5024096;28;20032;-62
2023/09/11 10:56:40;;;;;;;5.00;4.55;;;30.80;18.40;;;;;;5022836;28;20272;-62
2023/09/11 10:59:07;;;;;;;7.75;4.68;;;30.80;18.70;;;;;;5028976;28;20025;-61
2023/09/11 11:01:33;;;;;;;4.30;3.90;;;30.80;18.80;;;;;;5022194;28;20485;-62
2023/09/11 11:04:02;;;;;;;4.93;4.38;;;30.80;18.80;;;;;;5023712;28;20037;-62
2023/09/11 11:06:29;;;;;;;6.32;4.50;;;30.70;19.40;;;;;;5016247;28;20038;-62
2023/09/11 11:08:54;;;;;;;5.45;4.78;;;30.70;18.90;;;;;;5022072;28;20037;-62
2023/09/11 11:11:25;;;;;;;7.95;4.90;;;30.70;19.00;;;;;;5020971;28;20441;-62
2023/09/11 11:14:18;;;;;;;5.50;4.43;;;30.70;19.00;;;;;;5018648;28;20068;-62
2023/09/11 11:17:03;;;;;;;4.30;3.90;;;30.70;19.10;;;;;;5024346;28;20547;-62
2023/09/11 11:19:34;;;;;;;6.63;4.25;;;30.60;18.30;;;;;;5024196;28;20520;-62
2023/09/11 11:22:01;;;;;;;5.82;3.78;;;30.50;18.40;;;;;;5020018;28;20033;-62
2023/09/11 11:24:30;;;;;;;4.93;3.60;;;30.50;18.40;;;;;;5019517;28;20214;-62
2023/09/11 11:26:57;;;;;;;5.50;4.03;;;30.40;18.40;;;;;;5023754;28;20092;-62
2023/09/11 11:29:24;;;;;;;4.28;3.88;;;30.40;18.40;;;;;;5021739;28;20100;-62
2023/09/11 11:31:53;;;;;;;4.38;3.92;;;30.40;18.40;;;;;;5021432;28;20631;-62
2023/09/11 11:34:27;;;;;;;7.85;4.68;;;30.40;18.40;;;;;;5023384;28;20465;-61
2023/09/11 11:36:55;;;;;;;7.72;4.57;;;30.30;18.40;;;;;;5022713;28;20030;-62
2023/09/11 11:39:22;;;;;;;5.40;4.10;;;30.30;18.40;;;;;;5021477;28;20497;-62
2023/09/11 11:41:50;;;;;;;5.07;4.00;;;30.30;18.50;;;;;;5021356;28;20041;-62
2023/09/11 11:44:17;;;;;;;4.55;4.07;;;30.30;18.40;;;;;;5021748;28;20025;-62
2023/09/11 11:46:42;;;;;;;3.83;3.53;;;30.20;18.20;;;;;;5019089;28;20022;-62
2023/09/11 11:49:08;;;;;;;5.10;4.22;;;30.20;18.90;;;;;;5023653;28;20028;-62
2023/09/11 11:51:34;;;;;;;7.25;4.40;;;30.20;18.40;;;;;;5019728;28;20113;-62
2023/09/11 11:54:00;;;;;;;7.60;4.28;;;30.20;18.10;;;;;;5030080;28;20025;-62
2023/09/11 11:56:27;;;;;;;4.32;3.58;;;30.20;17.90;;;;;;5021218;28;20103;-62
2023/09/11 11:58:58;;;;;;;4.43;3.40;;;30.20;17.30;;;;;;5021002;28;20036;-61
2023/09/11 12:01:24;;;;;;;9.98;3.60;;;30.10;16.60;;;;;;5021559;28;20389;-62
2023/09/11 12:03:50;;;;;;;6.43;4.10;;;30.00;17.20;;;;;;5021118;28;20036;-62
2023/09/11 12:06:18;;;;;;;7.05;4.10;;;30.00;17.60;;;;;;5021083;28;20522;-62
2023/09/11 12:08:45;;;;;;;8.45;4.15;;;30.00;18.30;;;;;;5019663;28;20374;-62
2023/09/11 12:11:10;;;;;;;6.28;4.50;;;30.00;18.10;;;;;;5031005;28;20041;-62
2023/09/11 12:13:36;;;;;;;6.63;3.92;;;30.00;18.20;;;;;;5013896;28;20022;-62
2023/09/11 12:16:02;;;;;;;5.13;4.03;;;30.00;18.20;;;;;;5023038;28;20113;-62
2023/09/11 12:18:29;;;;;;;6.75;4.07;;;30.00;18.30;;;;;;5017813;28;20061;-62
2023/09/11 12:20:59;;;;;;;5.60;4.25;;;29.90;18.20;;;;;;5021110;28;20029;-62
2023/09/11 12:23:25;;;;;;;6.95;4.20;;;29.90;18.30;;;;;;5024867;28;20109;-62
2023/09/11 12:25:51;;;;;;;7.05;3.92;;;29.80;19.10;;;;;;5020760;28;20112;-62
2023/09/11 12:28:18;;;;;;;10.05;4.43;;;29.80;18.60;;;;;;5021221;28;20044;-62
2023/09/11 12:30:45;;;;;;;11.15;4.90;;;29.70;18.20;;;;;;5030121;28;20039;-62
2023/09/11 12:33:14;;;;;;;6.45;4.65;;;29.70;18.70;;;;;;5023159;28;20063;-62
2023/09/11 12:35:40;;;;;;;5.95;4.32;;;29.60;18.60;;;;;;5020483;28;20108;-62
2023/09/11 12:38:10;;;;;;;7.63;4.68;;;29.60;18.40;;;;;;5020458;28;20049;-62
2023/09/11 12:40:37;;;;;;;6.00;4.63;;;29.60;17.90;;;;;;5013596;28;20037;-62
2023/09/11 12:43:03;;;;;;;11.32;4.35;;;29.60;17.90;;;;;;5017613;28;20020;-62